createdAt,value
2023-03-21T00:01:06.467Z,6.80
2023-03-21T00:04:04.078Z,6.80
2023-03-21T00:07:00.979Z,6.80
2023-03-21T00:10:08.683Z,6.80
2023-03-21T00:13:13.364Z,6.70
2023-03-21T00:16:19.075Z,6.60
2023-03-21T00:19:20.875Z,6.60
2023-03-21T00:22:17.747Z,6.60
2023-03-21T00:25:14.630Z,6.70
2023-03-21T00:28:11.535Z,6.60
2023-03-21T00:31:09.692Z,6.60
2023-03-21T00:34:06.642Z,6.60
2023-03-21T00:37:03.832Z,6.60
2023-03-21T00:40:01.367Z,6.60
2023-03-21T00:42:58.446Z,6.70
2023-03-21T00:45:56.224Z,6.70
2023-03-21T00:48:54.108Z,6.60
2023-03-21T00:51:51.394Z,6.60
2023-03-21T00:54:48.599Z,6.50
2023-03-21T00:57:52.834Z,6.50
2023-03-21T01:00:53.057Z,6.50
2023-03-21T01:03:51.150Z,6.50
2023-03-21T01:06:48.797Z,6.50
2023-03-21T01:09:45.635Z,6.50
2023-03-21T01:12:42.483Z,6.60
2023-03-21T01:15:51.562Z,6.50
2023-03-21T01:18:48.674Z,6.50
2023-03-21T01:21:45.522Z,6.50
2023-03-21T01:24:52.370Z,6.40
2023-03-21T01:27:51.448Z,6.50
2023-03-21T01:30:51.872Z,6.50
2023-03-21T01:33:48.971Z,6.50
2023-03-21T01:36:46.126Z,6.50
2023-03-21T01:39:43.094Z,6.50
2023-03-21T01:42:40.282Z,6.40
2023-03-21T01:46:23.928Z,6.50
2023-03-21T01:49:36.009Z,6.40
2023-03-21T01:52:39.006Z,6.30
2023-03-21T01:55:37.526Z,6.40
2023-03-21T01:58:35.787Z,6.40
2023-03-21T02:01:34.808Z,6.30
2023-03-21T02:04:31.658Z,6.30
2023-03-21T02:07:35.839Z,6.30
2023-03-21T02:10:33.260Z,6.30
2023-03-21T02:13:30.829Z,6.30
2023-03-21T02:16:48.458Z,6.30
2023-03-21T02:20:00.698Z,6.40
2023-03-21T02:23:28.187Z,6.50
2023-03-21T02:26:52.445Z,6.40
2023-03-21T02:30:26.578Z,6.40
2023-03-21T02:34:07.181Z,6.20
2023-03-21T02:37:37.643Z,6.20
2023-03-21T02:41:03.401Z,6.20
2023-03-21T02:44:31.126Z,6.30
2023-03-21T02:47:47.565Z,6.30
2023-03-21T02:50:52.606Z,6.20
2023-03-21T02:54:38.367Z,6.20
2023-03-21T02:57:42.570Z,6.20
2023-03-21T03:00:42.871Z,6.20
2023-03-21T03:03:39.758Z,6.30
2023-03-21T03:07:17.826Z,6.30
2023-03-21T03:10:48.109Z,6.40
2023-03-21T03:18:01.019Z,6.20
2023-03-21T03:21:44.086Z,6.30
2023-03-21T03:24:54.581Z,6.40
2023-03-21T03:27:52.933Z,6.30
2023-03-21T03:31:07.603Z,6.20
2023-03-21T03:34:11.681Z,6.20
2023-03-21T03:37:16.794Z,6.40
2023-03-21T03:40:37.522Z,6.30
2023-03-21T03:43:39.523Z,6.30
2023-03-21T03:46:47.448Z,6.20
2023-03-21T03:50:00.667Z,6.40
2023-03-21T03:53:22.007Z,6.40
2023-03-21T03:56:19.933Z,6.30
2023-03-21T03:59:19.429Z,6.20
2023-03-21T04:02:17.353Z,6.30
2023-03-21T04:05:14.679Z,6.30
2023-03-21T04:08:11.513Z,6.20
2023-03-21T04:11:08.675Z,6.10
2023-03-21T04:14:05.599Z,6.10
2023-03-21T04:17:02.438Z,6.00
2023-03-21T04:20:10.781Z,6.00
2023-03-21T04:23:09.819Z,5.90
2023-03-21T04:26:07.379Z,5.90
2023-03-21T04:29:05.281Z,5.90
2023-03-21T04:32:02.191Z,5.90
2023-03-21T04:34:59.881Z,5.90
2023-03-21T04:37:56.864Z,5.90
2023-03-21T04:40:53.661Z,5.80
2023-03-21T04:43:51.872Z,5.80
2023-03-21T04:46:50.321Z,5.80
2023-03-21T04:49:50.110Z,5.80
2023-03-21T04:52:46.941Z,5.80
2023-03-21T04:55:43.750Z,5.80
2023-03-21T04:58:41.276Z,5.80
2023-03-21T05:01:38.093Z,5.70
2023-03-21T05:04:34.925Z,5.80
2023-03-21T05:07:32.781Z,5.80
2023-03-21T05:10:29.610Z,5.70
2023-03-21T05:13:26.441Z,5.70
2023-03-21T05:16:26.830Z,5.70
2023-03-21T05:19:34.828Z,5.90
2023-03-21T05:22:40.336Z,5.90
2023-03-21T05:25:40.343Z,5.90
2023-03-21T05:28:37.349Z,5.90
2023-03-21T05:31:34.451Z,5.80
2023-03-21T05:34:32.161Z,5.70
2023-03-21T05:37:29.202Z,5.80
2023-03-21T05:40:26.006Z,5.80
2023-03-21T05:43:22.831Z,5.90
2023-03-21T05:46:19.709Z,6.00
2023-03-21T05:49:16.520Z,6.00
2023-03-21T05:52:13.451Z,6.00
2023-03-21T05:55:10.322Z,6.00
2023-03-21T05:58:07.184Z,5.90
2023-03-21T06:01:04.215Z,6.00
2023-03-21T06:04:01.189Z,6.00
2023-03-21T06:06:58.227Z,6.10
2023-03-21T06:09:55.165Z,6.10
2023-03-21T06:12:51.978Z,6.20
2023-03-21T06:15:48.837Z,6.20
2023-03-21T06:18:45.721Z,6.30
2023-03-21T06:21:42.961Z,6.30
2023-03-21T06:24:39.794Z,6.30
2023-03-21T06:27:37.480Z,6.40
2023-03-21T06:30:34.297Z,6.50
2023-03-21T06:33:31.435Z,6.50
2023-03-21T06:36:28.259Z,6.50
2023-03-21T06:39:26.279Z,6.60
2023-03-21T06:42:23.130Z,6.60
2023-03-21T06:45:20.225Z,6.70
2023-03-21T06:48:17.087Z,6.90
2023-03-21T06:51:16.016Z,7.00
2023-03-21T06:54:14.539Z,7.00
2023-03-21T06:57:11.536Z,7.10
2023-03-21T07:00:09.519Z,7.20
2023-03-21T07:03:06.990Z,7.30
2023-03-21T07:06:11.844Z,7.40
2023-03-21T07:09:08.784Z,7.50
2023-03-21T07:12:05.769Z,7.60
2023-03-21T07:15:04.426Z,7.60
2023-03-21T07:18:01.256Z,7.70
2023-03-21T07:20:58.655Z,7.70
2023-03-21T07:23:55.480Z,7.80
2023-03-21T07:26:52.293Z,7.90
2023-03-21T07:29:50.444Z,8.00
2023-03-21T07:32:47.685Z,8.10
2023-03-21T07:35:44.542Z,8.10
2023-03-21T07:38:43.384Z,8.20
2023-03-21T07:41:40.338Z,8.30
2023-03-21T07:44:37.170Z,8.30
2023-03-21T07:47:34.510Z,8.40
2023-03-21T07:50:31.555Z,8.50
2023-03-21T07:53:28.438Z,8.50
2023-03-21T07:56:25.328Z,8.60
2023-03-21T07:59:22.387Z,8.50
2023-03-21T08:02:19.489Z,8.60
2023-03-21T08:05:19.220Z,8.60
2023-03-21T08:08:16.089Z,8.70
2023-03-21T08:11:13.449Z,8.90
2023-03-21T08:14:10.360Z,9.10
2023-03-21T08:17:09.459Z,9.20
2023-03-21T08:20:09.947Z,9.40
2023-03-21T08:23:06.842Z,9.40
2023-03-21T08:26:03.769Z,9.40
2023-03-21T08:29:00.901Z,9.40
2023-03-21T08:31:58.205Z,9.50
2023-03-21T08:34:58.747Z,10.00
2023-03-21T08:37:55.657Z,10.20
2023-03-21T08:40:52.489Z,10.80
2023-03-21T08:43:49.443Z,10.50
2023-03-21T08:46:46.315Z,10.50
2023-03-21T08:49:45.698Z,10.60
2023-03-21T08:52:42.912Z,11.00
2023-03-21T08:55:40.059Z,11.70
2023-03-21T08:58:37.786Z,12.00
2023-03-21T09:01:34.734Z,11.50
2023-03-21T09:04:31.902Z,11.90
2023-03-21T09:07:28.753Z,12.00
2023-03-21T09:10:25.751Z,13.30
2023-03-21T09:13:23.512Z,13.60
2023-03-21T09:16:20.416Z,14.90
2023-03-21T09:19:18.008Z,15.00
2023-03-21T09:22:17.336Z,14.80
2023-03-21T09:25:16.167Z,14.20
2023-03-21T09:28:14.087Z,14.00
2023-03-21T09:31:12.291Z,13.70
2023-03-21T09:34:09.847Z,14.50
2023-03-21T09:37:13.310Z,15.00
2023-03-21T09:40:53.844Z,16.00
2023-03-21T09:44:30.446Z,15.60
2023-03-21T09:47:34.850Z,16.10
2023-03-21T09:50:36.918Z,15.90
2023-03-21T09:53:40.097Z,16.00
2023-03-21T09:56:41.021Z,16.20
2023-03-21T09:59:42.941Z,16.00
2023-03-21T10:02:47.214Z,15.90
2023-03-21T10:05:45.907Z,15.20
2023-03-21T10:08:47.076Z,15.50
2023-03-21T10:11:58.729Z,17.80
2023-03-21T10:14:58.738Z,17.80
2023-03-21T10:18:07.973Z,17.70
2023-03-21T10:21:05.924Z,17.60
2023-03-21T10:24:02.865Z,18.10
2023-03-21T10:27:01.675Z,18.60
2023-03-21T10:30:00.923Z,18.40
2023-03-21T10:33:04.982Z,18.40
2023-03-21T10:36:08.237Z,16.60
2023-03-21T10:39:37.772Z,16.30
2023-03-21T10:42:36.645Z,16.00
2023-03-21T10:45:35.656Z,15.40
2023-03-21T10:48:38.339Z,14.90
2023-03-21T10:51:39.062Z,14.90
2023-03-21T10:54:36.143Z,14.80
2023-03-21T10:57:33.377Z,15.10
2023-03-21T11:00:37.694Z,15.40
2023-03-21T11:03:43.659Z,15.70
2023-03-21T11:06:50.699Z,16.30
2023-03-21T11:09:54.962Z,15.90
2023-03-21T11:12:57.805Z,15.80
2023-03-21T11:16:05.707Z,15.10
2023-03-21T11:19:32.400Z,15.00
2023-03-21T11:22:39.280Z,15.30
2023-03-21T11:25:41.504Z,15.50
2023-03-21T11:28:44.835Z,15.70
2023-03-21T11:31:42.043Z,15.80
2023-03-21T11:34:53.262Z,15.70
2023-03-21T11:37:56.438Z,15.70
2023-03-21T11:40:59.276Z,15.80
2023-03-21T11:43:57.221Z,16.10
2023-03-21T11:46:55.114Z,16.00
2023-03-21T11:49:58.432Z,15.60
2023-03-21T11:53:42.651Z,15.20
2023-03-21T11:56:51.553Z,15.80
2023-03-21T12:00:15.853Z,16.00
2023-03-21T12:03:48.778Z,16.30
2023-03-21T12:07:00.695Z,16.30
2023-03-21T12:10:34.131Z,16.30
2023-03-21T12:14:00.139Z,16.40
2023-03-21T12:17:42.476Z,17.00
2023-03-21T12:21:04.284Z,17.10
2023-03-21T12:24:23.317Z,18.00
2023-03-21T12:27:35.618Z,18.30
2023-03-21T12:30:49.742Z,18.90
2023-03-21T12:34:08.181Z,18.70
2023-03-21T12:37:39.170Z,18.80
2023-03-21T12:41:04.137Z,19.20
2023-03-21T12:44:17.655Z,18.90
2023-03-21T12:47:22.494Z,17.80
2023-03-21T12:50:37.339Z,17.10
2023-03-21T12:53:49.788Z,17.10
2023-03-21T12:57:12.846Z,16.90
2023-03-21T13:00:26.362Z,17.20
2023-03-21T13:03:46.672Z,17.30
2023-03-21T13:06:46.559Z,17.00
2023-03-21T13:09:43.852Z,16.70
2023-03-21T13:13:18.230Z,16.30
2023-03-21T13:16:46.271Z,16.20
2023-03-21T13:19:52.649Z,16.40
2023-03-21T13:22:49.630Z,16.50
2023-03-21T13:25:50.346Z,16.80
2023-03-21T13:28:48.252Z,16.70
2023-03-21T13:31:52.078Z,16.70
2023-03-21T13:35:04.980Z,16.50
2023-03-21T13:38:12.756Z,16.20
2023-03-21T13:41:17.108Z,16.00
2023-03-21T13:44:33.118Z,16.10
2023-03-21T13:47:53.081Z,16.00
2023-03-21T13:51:04.741Z,16.00
2023-03-21T13:54:07.478Z,15.80
2023-03-21T13:57:30.418Z,15.80
2023-03-21T14:00:31.135Z,15.40
2023-03-21T14:03:30.784Z,15.40
2023-03-21T14:07:01.839Z,15.50
2023-03-21T14:10:06.591Z,15.70
2023-03-21T14:13:06.283Z,15.30
2023-03-21T14:16:14.385Z,15.40
2023-03-21T14:19:12.302Z,15.60
2023-03-21T14:22:13.619Z,15.60
2023-03-21T14:25:17.518Z,15.50
2023-03-21T14:28:22.891Z,15.30
2023-03-21T14:31:21.090Z,15.40
2023-03-21T14:34:18.884Z,15.80
2023-03-21T14:37:38.887Z,15.40
2023-03-21T14:40:36.205Z,15.10
2023-03-21T14:43:36.160Z,15.00
2023-03-21T14:46:33.872Z,15.00
2023-03-21T14:49:34.639Z,15.10
2023-03-21T14:52:33.551Z,14.90
2023-03-21T14:55:30.533Z,14.80
2023-03-21T14:58:29.062Z,14.70
2023-03-21T15:01:32.201Z,14.80
2023-03-21T15:04:31.819Z,14.70
2023-03-21T15:07:34.725Z,14.60
2023-03-21T15:10:32.305Z,14.60
2023-03-21T15:13:45.436Z,14.60
2023-03-21T15:16:42.518Z,14.60
2023-03-21T15:19:43.709Z,14.40
2023-03-21T15:22:49.005Z,14.50
2023-03-21T15:25:46.109Z,14.30
2023-03-21T15:28:51.445Z,14.50
2023-03-21T15:31:48.866Z,14.50
2023-03-21T15:34:46.583Z,14.10
2023-03-21T15:37:51.773Z,14.00
2023-03-21T15:40:48.681Z,13.90
2023-03-21T15:44:13.512Z,13.90
2023-03-21T15:47:14.197Z,14.10
2023-03-21T15:50:26.828Z,14.40
2023-03-21T15:53:24.335Z,14.20
2023-03-21T15:56:22.981Z,14.10
2023-03-21T15:59:19.944Z,13.90
2023-03-21T16:02:24.157Z,13.60
2023-03-21T16:05:33.702Z,13.60
2023-03-21T16:08:36.730Z,13.60
2023-03-21T16:11:43.967Z,13.50
2023-03-21T16:14:42.647Z,13.30
2023-03-21T16:17:41.105Z,13.20
2023-03-21T16:20:44.993Z,13.10
2023-03-21T16:23:42.206Z,13.20
2023-03-21T16:26:46.093Z,13.10
2023-03-21T16:29:43.000Z,12.80
2023-03-21T16:32:40.185Z,13.00
2023-03-21T16:35:37.017Z,12.90
2023-03-21T16:38:34.008Z,12.70
2023-03-21T16:41:30.976Z,12.20
2023-03-21T16:44:28.084Z,12.10
2023-03-21T16:47:24.991Z,11.90
2023-03-21T16:50:39.878Z,11.90
2023-03-21T16:53:36.906Z,11.60
2023-03-21T16:56:44.808Z,11.50
2023-03-21T16:59:42.763Z,11.70
2023-03-21T17:02:39.609Z,11.50
2023-03-21T17:05:36.436Z,11.40
2023-03-21T17:08:33.320Z,11.20
2023-03-21T17:11:35.962Z,10.70
2023-03-21T17:14:32.777Z,10.70
2023-03-21T17:17:29.597Z,10.60
2023-03-21T17:20:35.240Z,10.60
2023-03-21T17:23:32.092Z,10.60
2023-03-21T17:26:29.464Z,10.30
2023-03-21T17:29:26.330Z,10.10
2023-03-21T17:32:23.153Z,10.30
2023-03-21T17:35:21.994Z,10.20
2023-03-21T17:38:18.933Z,10.10
2023-03-21T17:41:18.681Z,10.10
2023-03-21T17:44:15.920Z,10.00
2023-03-21T17:47:13.096Z,10.00
2023-03-21T17:50:19.498Z,10.00
2023-03-21T17:53:16.334Z,10.20
2023-03-21T17:56:25.813Z,10.30
2023-03-21T17:59:23.565Z,10.10
2023-03-21T18:02:20.660Z,10.00
2023-03-21T18:05:18.259Z,9.80
2023-03-21T18:08:15.517Z,9.70
2023-03-21T18:11:14.034Z,9.80
2023-03-21T18:14:17.684Z,9.90
2023-03-21T18:17:19.348Z,9.90
2023-03-21T18:20:19.899Z,9.80
2023-03-21T18:23:18.673Z,9.80
2023-03-21T18:26:22.822Z,9.80
2023-03-21T18:32:38.001Z,9.90
2023-03-21T18:35:35.097Z,9.80
2023-03-21T18:38:31.965Z,9.80
2023-03-21T18:41:29.356Z,9.70
2023-03-21T18:44:26.622Z,9.80
2023-03-21T18:47:23.612Z,9.80
2023-03-21T18:50:21.049Z,9.70
2023-03-21T18:53:17.886Z,9.70
2023-03-21T18:56:57.671Z,9.60
2023-03-21T18:59:34.621Z,9.50
2023-03-21T19:02:31.911Z,9.50
2023-03-21T19:05:29.184Z,9.50
2023-03-21T19:08:26.030Z,9.70
2023-03-21T19:11:23.688Z,9.70
2023-03-21T19:14:20.600Z,9.60
2023-03-21T19:18:15.746Z,9.60
2023-03-21T19:20:34.901Z,9.30
2023-03-21T19:23:56.366Z,9.20
2023-03-21T19:26:49.301Z,9.20
2023-03-21T19:29:59.788Z,9.20
2023-03-21T19:33:03.128Z,9.40
2023-03-21T19:36:15.390Z,9.40
2023-03-21T19:39:19.355Z,9.40
2023-03-21T19:42:17.774Z,9.40
2023-03-21T19:45:14.657Z,9.30
2023-03-21T19:48:11.827Z,9.20
2023-03-21T19:51:27.754Z,9.10
2023-03-21T19:54:25.752Z,9.10
2023-03-21T19:57:24.940Z,9.10
2023-03-21T20:00:22.302Z,9.00
2023-03-21T20:03:22.088Z,8.90
2023-03-21T20:06:19.589Z,9.00
2023-03-21T20:09:50.829Z,9.00
2023-03-21T20:12:34.130Z,8.90
2023-03-21T20:15:31.142Z,8.80
2023-03-21T20:18:28.028Z,8.80
2023-03-21T20:21:27.250Z,8.80
2023-03-21T20:24:24.098Z,8.60
2023-03-21T20:27:25.040Z,8.80
2023-03-21T20:30:22.069Z,8.70
2023-03-21T20:33:19.530Z,8.60
2023-03-21T20:36:38.033Z,8.40
2023-03-21T20:39:35.289Z,8.30
2023-03-21T20:42:35.360Z,8.30
2023-03-21T20:45:33.279Z,8.20
2023-03-21T20:48:30.736Z,8.10
2023-03-21T20:54:45.672Z,8.20
2023-03-21T20:57:42.557Z,8.30
2023-03-21T21:00:39.974Z,8.10
2023-03-21T21:03:41.135Z,8.00
2023-03-21T21:06:38.882Z,8.00
2023-03-21T21:09:35.719Z,8.10
2023-03-21T21:12:32.531Z,7.90
2023-03-21T21:15:29.373Z,7.90
2023-03-21T21:18:26.332Z,7.70
2023-03-21T21:21:23.161Z,7.60
2023-03-21T21:24:20.181Z,7.30
2023-03-21T21:27:17.048Z,7.40
2023-03-21T21:30:14.226Z,7.50
2023-03-21T21:33:11.142Z,7.40
2023-03-21T21:36:10.142Z,7.30
2023-03-21T21:39:07.531Z,7.20
2023-03-21T21:42:05.566Z,7.20
2023-03-21T21:45:02.450Z,7.20
2023-03-21T21:47:59.315Z,7.20
2023-03-21T21:50:56.183Z,7.00
2023-03-21T21:53:55.901Z,6.90
2023-03-21T21:56:54.079Z,6.90
2023-03-21T21:59:53.891Z,6.70
2023-03-21T22:02:52.122Z,6.80
2023-03-21T22:05:50.466Z,6.80
2023-03-21T22:08:47.304Z,6.80
2023-03-21T22:11:44.111Z,6.60
2023-03-21T22:14:40.970Z,6.60
2023-03-21T22:17:39.954Z,6.70
2023-03-21T22:20:37.359Z,6.80
2023-03-21T22:23:34.523Z,6.60
2023-03-21T22:26:31.456Z,6.60
2023-03-21T22:29:28.884Z,6.50
2023-03-21T22:32:25.702Z,6.50
2023-03-21T22:35:22.704Z,6.40
2023-03-21T22:38:24.188Z,6.30
2023-03-21T22:41:21.224Z,6.30
2023-03-21T22:44:18.150Z,6.20
2023-03-21T22:47:15.438Z,6.20
2023-03-21T22:50:12.322Z,6.20
2023-03-21T22:53:09.225Z,6.30
2023-03-21T22:56:06.687Z,6.40
2023-03-21T22:59:03.583Z,6.40
2023-03-21T23:02:00.559Z,6.40
2023-03-21T23:04:57.379Z,6.40
2023-03-21T23:07:54.191Z,6.30
2023-03-21T23:10:51.612Z,6.20
2023-03-21T23:13:53.625Z,6.10
2023-03-21T23:17:00.079Z,6.20
2023-03-21T23:19:57.004Z,6.10
2023-03-21T23:22:54.602Z,6.10
2023-03-21T23:25:52.168Z,5.90
2023-03-21T23:28:49.843Z,5.90
2023-03-21T23:31:46.921Z,5.90
2023-03-21T23:34:44.179Z,5.70
2023-03-21T23:37:52.191Z,5.80
2023-03-21T23:40:49.284Z,5.90
2023-03-21T23:43:47.002Z,5.80
2023-03-21T23:46:43.809Z,5.60
2023-03-21T23:49:40.832Z,5.70
2023-03-21T23:52:38.244Z,5.60
2023-03-21T23:55:37.805Z,5.70
2023-03-21T23:58:34.617Z,5.60
